Time;durP1;ratioP1;P1;durP2;ratioP2;P2;SDS_P1;SDS_P2;PMS_P1;PMS_P2;Temp;Humidity;BMP_temperature;BMP_pressure;BME280_temperature;BME280_humidity;BME280_pressure;Samples;Min_cycle;Max_cycle;Signal;HPM_P1;HPM_P2
2023/10/12 00:01:01;;;;;;;19.05;8.40;;;;;;;16.60;100.00;101019.25;5092517;28;20032;-88
2023/10/12 00:03:26;;;;;;;18.80;9.48;;;;;;;16.58;100.00;101021.38;5094141;28;20024;-89
2023/10/12 00:05:51;;;;;;;20.33;9.37;;;;;;;16.57;100.00;101020.56;5094650;28;20488;-88
2023/10/12 00:08:30;;;;;;;24.27;9.93;;;;;;;16.45;100.00;101036.28;5096767;28;20111;-88
2023/10/12 00:10:56;;;;;;;18.35;9.95;;;;;;;16.37;100.00;101036.69;5081525;28;20038;-88
2023/10/12 00:13:28;;;;;;;22.67;10.27;;;;;;;16.34;100.00;101043.47;5096606;28;20107;-88
2023/10/12 00:15:55;;;;;;;20.35;10.57;;;;;;;16.31;100.00;101041.25;5080881;28;20032;-89
2023/10/12 00:18:22;;;;;;;21.27;10.77;;;;;;;16.25;100.00;101051.28;5096150;28;20066;-89
2023/10/12 00:20:53;;;;;;;20.90;11.10;;;;;;;16.20;100.00;101042.19;5079667;28;20048;-88
2023/10/12 00:23:19;;;;;;;19.73;11.25;;;;;;;16.18;100.00;101055.25;5096455;28;20032;-88
2023/10/12 00:25:46;;;;;;;22.87;11.23;;;;;;;16.12;100.00;101051.59;5079408;28;20032;-88
2023/10/12 00:28:17;;;;;;;21.67;12.48;;;;;;;16.05;100.00;101049.03;5097674;28;20111;-88
2023/10/12 00:30:43;;;;;;;25.02;12.20;;;;;;;15.94;100.00;101047.19;5096368;28;20028;-89
2023/10/12 00:33:12;;;;;;;25.23;12.73;;;;;;;15.82;100.00;101054.66;5096487;28;20160;-88
2023/10/12 00:35:37;;;;;;;23.83;12.83;;;;;;;15.72;100.00;101050.63;5096200;28;20028;-88
2023/10/12 00:38:22;;;;;;;27.50;13.88;;;;;;;15.63;100.00;101059.44;5079282;28;20130;-89
2023/10/12 00:40:49;;;;;;;24.58;14.63;;;;;;;15.53;100.00;101066.38;5082186;28;20024;-89
2023/10/12 00:43:15;;;;;;;32.17;15.67;;;;;;;15.45;100.00;101069.50;5096041;28;20085;-89
2023/10/12 00:45:42;;;;;;;26.40;14.27;;;;;;;15.39;100.00;101082.22;5096234;28;20115;-89
2023/10/12 00:48:15;;;;;;;33.90;16.05;;;;;;;15.31;100.00;101093.56;5096883;28;20031;-89
2023/10/12 00:50:43;;;;;;;34.63;16.17;;;;;;;15.26;100.00;101097.00;5096827;28;20051;-89
2023/10/12 00:53:55;;;;;;;32.23;16.73;;;;;;;15.22;100.00;101090.34;5095659;28;20027;-89
2023/10/12 00:56:02;;;;;;;31.55;15.57;;;;;;;15.19;100.00;101085.38;5094966;28;20044;-89
2023/10/12 00:58:27;;;;;;;35.37;16.97;;;;;;;15.13;100.00;101101.88;5096159;28;20063;-89
2023/10/12 01:00:53;;;;;;;31.37;17.93;;;;;;;15.08;100.00;101095.22;5112752;28;20472;-89
2023/10/12 01:03:37;;;;;;;40.00;17.77;;;;;;;15.04;100.00;101098.69;5078871;28;20043;-88
2023/10/12 01:06:12;;;;;;;42.83;20.05;;;;;;;14.99;100.00;101090.41;5081456;28;20035;-88
2023/10/12 01:08:42;;;;;;;37.83;20.10;;;;;;;14.96;100.00;101077.22;5095565;28;20059;-88
2023/10/12 01:11:19;;;;;;;37.70;20.10;;;;;;;14.96;100.00;101093.59;5095482;28;20474;-88
2023/10/12 01:14:05;;;;;;;46.70;21.08;;;;;;;14.90;100.00;101088.00;5096571;28;20368;-88
2023/10/12 01:16:54;;;;;;;42.47;21.50;;;;;;;14.90;100.00;101093.47;5095708;28;20467;-88
2023/10/12 01:19:23;;;;;;;42.65;22.33;;;;;;;14.88;100.00;101102.97;5096164;28;20042;-88
2023/10/12 01:21:55;;;;;;;45.03;22.10;;;;;;;14.88;100.00;101105.69;5078927;28;20058;-88
2023/10/12 01:24:29;;;;;;;52.17;23.70;;;;;;;14.88;100.00;101092.91;5097127;28;20452;-88
2023/10/12 01:26:56;;;;;;;48.00;23.67;;;;;;;14.86;100.00;101100.47;5112775;28;20093;-88
2023/10/12 01:29:25;;;;;;;46.87;22.13;;;;;;;14.85;100.00;101096.09;5095208;28;20032;-88
2023/10/12 01:32:20;;;;;;;46.45;21.85;;;;;;;14.83;100.00;101092.75;5096193;28;20024;-88
2023/10/12 01:34:44;;;;;;;48.45;23.27;;;;;;;14.85;100.00;101095.25;5096154;28;20070;-88
2023/10/12 01:37:22;;;;;;;49.55;23.35;;;;;;;14.83;100.00;101068.19;5095843;28;20115;-88
2023/10/12 01:48:05;;;;;;;50.10;24.33;;;;;;;14.84;100.00;101049.91;5095584;28;20047;-87
2023/10/12 01:50:33;;;;;;;54.03;25.20;;;;;;;14.84;100.00;101044.44;5094462;28;20028;-87
2023/10/12 01:52:58;;;;;;;57.65;25.60;;;;;;;14.83;100.00;101061.91;5094673;28;20081;-88
2023/10/12 01:55:31;;;;;;;58.93;25.57;;;;;;;14.80;100.00;101062.38;5094613;28;20035;-87
2023/10/12 01:57:58;;;;;;;56.70;24.88;;;;;;;14.78;100.00;101065.34;5095878;28;20081;-87
2023/10/12 02:00:28;;;;;;;52.85;24.63;;;;;;;14.77;100.00;101071.88;5095792;28;20036;-87
2023/10/12 02:03:06;;;;;;;59.13;25.60;;;;;;;14.74;100.00;101056.78;5094445;28;20127;-88
2023/10/12 02:05:36;;;;;;;64.53;25.37;;;;;;;14.70;100.00;101060.22;5095037;28;20028;-87
2023/10/12 02:08:05;;;;;;;53.78;25.35;;;;;;;14.66;100.00;101048.97;5078034;28;20377;-87
2023/10/12 02:10:43;;;;;;;60.13;26.50;;;;;;;14.62;100.00;101057.88;5094296;28;20028;-86
2023/10/12 02:13:10;;;;;;;57.15;27.20;;;;;;;14.59;100.00;101064.59;5094804;28;20127;-87
2023/10/12 02:15:37;;;;;;;54.58;27.75;;;;;;;14.55;100.00;101069.69;5094513;28;20089;-87
2023/10/12 02:18:11;;;;;;;64.00;28.13;;;;;;;14.55;100.00;101077.06;5095526;28;20068;-87
2023/10/12 02:20:42;;;;;;;62.38;28.88;;;;;;;14.50;100.00;101075.03;5062604;28;20062;-87
2023/10/12 02:23:12;;;;;;;63.55;28.55;;;;;;;14.46;100.00;101071.09;5095719;28;20073;-87
2023/10/12 02:25:50;;;;;;;55.80;27.25;;;;;;;14.45;100.00;101071.34;5095246;28;20028;-87
2023/10/12 02:28:22;;;;;;;63.13;28.67;;;;;;;14.42;100.00;101056.25;5093773;28;20055;-86
2023/10/12 02:30:50;;;;;;;65.87;28.53;;;;;;;14.38;100.00;101052.38;5095621;28;20028;-86
2023/10/12 02:33:18;;;;;;;57.35;26.15;;;;;;;14.35;100.00;101031.81;5093675;28;20065;-87
2023/10/12 02:35:44;;;;;;;62.17;28.10;;;;;;;14.34;100.00;101021.16;5077358;28;20070;-86
2023/10/12 02:38:15;;;;;;;63.08;28.35;;;;;;;14.33;100.00;101031.22;5093792;28;20032;-86
2023/10/12 02:40:43;;;;;;;58.92;27.58;;;;;;;14.32;100.00;101017.81;5078678;28;20360;-86
2023/10/12 02:43:10;;;;;;;66.50;27.87;;;;;;;14.32;100.00;101032.31;5095632;28;20028;-86
2023/10/12 02:45:41;;;;;;;60.78;27.70;;;;;;;14.32;100.00;101037.75;5093674;28;20028;-87
2023/10/12 02:48:12;;;;;;;56.92;27.27;;;;;;;14.30;100.00;101028.97;5093391;28;20055;-86
2023/10/12 02:50:57;;;;;;;62.00;27.23;;;;;;;14.31;100.00;101027.91;5093532;28;20081;-86
2023/10/12 02:53:30;;;;;;;55.20;25.67;;;;;;;14.31;100.00;101032.53;5094187;28;20039;-86
2023/10/12 02:55:58;;;;;;;62.57;26.50;;;;;;;14.32;100.00;101034.19;5095064;28;20036;-86
2023/10/12 02:58:24;;;;;;;63.53;26.50;;;;;;;14.31;100.00;101029.81;5093552;28;20058;-86
2023/10/12 03:00:56;;;;;;;60.47;27.65;;;;;;;14.29;100.00;101032.78;5076477;28;20043;-86
2023/10/12 03:03:25;;;;;;;58.67;25.35;;;;;;;14.28;100.00;101022.09;5095000;28;20059;-86
2023/10/12 03:05:58;;;;;;;66.55;27.25;;;;;;;14.27;100.00;101021.25;5094574;28;20100;-86
2023/10/12 03:08:23;;;;;;;62.00;25.93;;;;;;;14.26;100.00;101026.94;5077567;28;20043;-86
2023/10/12 03:11:03;;;;;;;60.35;27.42;;;;;;;14.27;100.00;101031.34;5093616;28;20036;-85
2023/10/12 03:13:34;;;;;;;59.88;27.30;;;;;;;14.25;100.00;101022.56;5094910;28;20032;-86
2023/10/12 03:18:38;;;;;;;59.80;28.08;;;;;;;14.27;100.00;101026.69;5094511;28;20048;-86
2023/10/12 03:21:07;;;;;;;60.65;26.33;;;;;;;14.24;100.00;101018.16;5075720;28;20046;-86
2023/10/12 03:23:33;;;;;;;53.30;25.10;;;;;;;14.23;100.00;101020.03;5092879;28;20034;-86
2023/10/12 03:26:20;;;;;;;59.70;25.90;;;;;;;14.22;100.00;101018.41;5093569;28;20032;-86
2023/10/12 03:28:46;;;;;;;59.22;24.67;;;;;;;14.21;100.00;101023.00;5093579;28;20055;-86
2023/10/12 03:31:22;;;;;;;61.40;25.48;;;;;;;14.19;100.00;101016.97;5094808;28;20079;-86
2023/10/12 03:33:54;;;;;;;58.80;24.25;;;;;;;14.17;100.00;101016.38;5092633;28;20177;-86
2023/10/12 03:36:36;;;;;;;54.67;24.50;;;;;;;14.14;100.00;101025.03;5093981;28;20535;-86
2023/10/12 03:41:49;;;;;;;54.90;23.15;;;;;;;14.09;100.00;101014.00;5092642;28;20043;-86
2023/10/12 03:45:07;;;;;;;54.42;22.75;;;;;;;14.09;100.00;101021.34;5092472;28;20123;-86
2023/10/12 03:47:05;;;;;;;50.50;22.95;;;;;;;14.08;100.00;101036.06;5090712;28;20460;-86
2023/10/12 03:49:32;;;;;;;55.70;23.33;;;;;;;14.07;100.00;101043.41;5094157;28;20028;-86
2023/10/12 03:52:09;;;;;;;47.45;22.27;;;;;;;14.05;100.00;101037.34;5092464;28;20043;-86
2023/10/12 03:54:35;;;;;;;56.53;22.50;;;;;;;14.04;100.00;101039.25;5092568;28;20040;-86
2023/10/12 03:57:26;;;;;;;56.27;23.00;;;;;;;14.04;100.00;101041.97;5092596;28;20062;-86
2023/10/12 03:59:59;;;;;;;48.05;22.25;;;;;;;14.04;100.00;101027.50;5093824;28;20038;-86
2023/10/12 04:02:25;;;;;;;51.03;20.90;;;;;;;14.01;100.00;101045.19;5093123;28;20035;-86
2023/10/12 04:13:09;;;;;;;57.10;22.42;;;;;;;14.02;100.00;101056.91;5093217;28;20410;-86
2023/10/12 04:18:27;;;;;;;53.22;21.00;;;;;;;14.04;100.00;101068.44;5093211;28;20120;-86
2023/10/12 04:20:56;;;;;;;57.65;22.10;;;;;;;14.04;100.00;101065.72;5093739;28;20028;-86
2023/10/12 04:26:32;;;;;;;54.55;22.75;;;;;;;14.05;100.00;101059.16;5093537;28;20044;-86
2023/10/12 04:28:56;;;;;;;55.67;22.33;;;;;;;14.05;100.00;101059.16;5093841;28;20036;-86
2023/10/12 04:32:10;;;;;;;57.47;22.77;;;;;;;14.07;100.00;101080.75;5060110;28;20127;-87
2023/10/12 04:34:10;;;;;;;58.38;22.70;;;;;;;14.07;100.00;101065.25;5084847;28;20438;-86
2023/10/12 04:47:16;;;;;;;57.80;22.75;;;;;;;14.09;100.00;101063.09;5093876;28;20155;-86
2023/10/12 04:52:25;;;;;;;59.70;23.00;;;;;;;14.12;100.00;101078.19;5094838;28;20032;-86
2023/10/12 04:55:00;;;;;;;53.95;21.30;;;;;;;14.13;100.00;101079.81;5082060;28;20028;-86
2023/10/12 04:57:32;;;;;;;54.67;22.15;;;;;;;14.12;100.00;101062.63;5095823;28;20020;-86
2023/10/12 05:02:42;;;;;;;52.10;22.02;;;;;;;14.13;100.00;101071.63;5096645;28;20100;-86
2023/10/12 05:07:53;;;;;;;49.70;21.25;;;;;;;14.14;100.00;101085.06;5097022;28;20102;-87
2023/10/12 05:10:27;;;;;;;51.42;22.38;;;;;;;14.15;100.00;101094.91;5095700;28;20042;-87
2023/10/12 05:13:05;;;;;;;53.53;22.30;;;;;;;14.16;100.00;101096.56;5097114;28;20070;-86
2023/10/12 05:15:46;;;;;;;52.05;21.73;;;;;;;14.16;100.00;101109.41;5095610;28;20107;-86
2023/10/12 05:18:17;;;;;;;47.97;21.52;;;;;;;14.14;100.00;101106.91;5095427;28;20035;-86
2023/10/12 05:20:43;;;;;;;55.88;21.30;;;;;;;14.15;100.00;101108.53;5094905;28;20073;-86
2023/10/12 05:23:11;;;;;;;52.58;22.08;;;;;;;14.16;100.00;101112.94;5095196;28;20039;-87
2023/10/12 05:28:21;;;;;;;54.30;21.90;;;;;;;14.17;100.00;101109.16;5097014;28;20476;-86
2023/10/12 05:30:59;;;;;;;51.08;20.65;;;;;;;14.17;100.00;101108.31;5094737;28;20024;-86
2023/10/12 05:36:08;;;;;;;45.47;20.30;;;;;;;14.13;100.00;101113.41;5096360;28;20048;-86
2023/10/12 05:38:38;;;;;;;49.80;19.97;;;;;;;14.13;100.00;101112.56;5095764;28;20032;-87
2023/10/12 05:41:04;;;;;;;46.78;18.92;;;;;;;14.13;100.00;101102.50;5094560;28;20123;-86
2023/10/12 05:43:33;;;;;;;46.90;19.20;;;;;;;14.13;100.00;101099.78;5094810;28;20035;-86
2023/10/12 05:46:09;;;;;;;42.78;19.13;;;;;;;14.12;100.00;101109.00;5094683;28;20039;-86
2023/10/12 05:48:41;;;;;;;42.63;18.48;;;;;;;14.11;100.00;101117.44;5094677;28;20468;-86
2023/10/12 05:51:10;;;;;;;50.07;18.97;;;;;;;14.11;100.00;101120.97;5096191;28;20059;-86
2023/10/12 05:53:37;;;;;;;45.33;18.67;;;;;;;14.09;100.00;101134.03;5094560;28;20043;-87
2023/10/12 05:56:03;;;;;;;45.85;19.23;;;;;;;14.09;100.00;101136.75;5061154;28;20052;-85
2023/10/12 05:58:28;;;;;;;46.03;19.05;;;;;;;14.09;100.00;101142.22;5094152;28;20031;-86
2023/10/12 06:00:54;;;;;;;44.90;19.60;;;;;;;14.08;100.00;101134.28;5095156;28;20044;-86
2023/10/12 06:03:22;;;;;;;43.43;19.20;;;;;;;14.06;100.00;101139.97;5093317;28;20024;-86
2023/10/12 06:05:48;;;;;;;43.33;17.52;;;;;;;14.06;100.00;101142.69;5095648;28;20035;-86
2023/10/12 06:08:16;;;;;;;48.17;20.73;;;;;;;14.04;100.00;101136.63;5094267;28;20052;-86
2023/10/12 06:10:42;;;;;;;43.22;19.60;;;;;;;14.03;100.00;101132.25;5095324;28;20101;-87
2023/10/12 06:13:15;;;;;;;45.83;19.03;;;;;;;14.06;100.00;101142.69;5093967;28;20036;-86
2023/10/12 06:15:42;;;;;;;41.38;18.13;;;;;;;14.05;100.00;101146.47;5093965;28;20031;-86
2023/10/12 06:18:13;;;;;;;42.35;19.23;;;;;;;14.05;100.00;101146.47;5095791;28;20056;-86
2023/10/12 06:20:42;;;;;;;47.65;18.67;;;;;;;14.05;100.00;101149.19;5077432;28;20025;-86
2023/10/12 06:23:13;;;;;;;42.40;18.40;;;;;;;14.04;100.00;101156.56;5095401;28;20020;-86
2023/10/12 06:25:39;;;;;;;42.55;19.05;;;;;;;14.05;100.00;101160.09;5093887;28;20084;-86
2023/10/12 06:28:07;;;;;;;45.92;18.63;;;;;;;14.03;100.00;101154.88;5095255;28;20418;-87
2023/10/12 06:30:34;;;;;;;46.40;19.23;;;;;;;14.02;100.00;101161.44;5093406;28;20384;-86
2023/10/12 06:33:02;;;;;;;42.27;18.43;;;;;;;14.03;100.00;101164.97;5093196;28;20059;-86
2023/10/12 06:35:28;;;;;;;42.42;18.33;;;;;;;14.02;100.00;101155.13;5093890;28;20032;-86
2023/10/12 06:45:54;;;;;;;47.00;19.10;;;;;;;14.03;100.00;101162.25;5095381;28;20036;-86
2023/10/12 06:51:02;;;;;;;44.60;19.25;;;;;;;14.02;100.00;101164.16;5095145;28;20040;-86
2023/10/12 06:53:35;;;;;;;44.75;19.38;;;;;;;14.01;100.00;101170.66;5093780;28;20039;-87
2023/10/12 06:59:07;;;;;;;44.53;18.88;;;;;;;14.03;100.00;101168.53;5093615;28;20040;-86
2023/10/12 07:01:38;;;;;;;47.58;19.52;;;;;;;14.04;100.00;101174.84;5093718;28;20024;-86
2023/10/12 07:04:15;;;;;;;45.88;19.52;;;;;;;14.06;100.00;101182.78;5093638;28;20115;-86
2023/10/12 07:06:56;;;;;;;48.28;19.42;;;;;;;14.04;100.00;101185.75;5110058;28;20028;-86
2023/10/12 07:09:42;;;;;;;46.57;18.83;;;;;;;14.04;100.00;101185.75;5078485;28;20088;-86
2023/10/12 07:12:13;;;;;;;47.42;19.45;;;;;;;14.03;100.00;101189.53;5093047;28;20024;-86
2023/10/12 07:14:53;;;;;;;49.80;20.13;;;;;;;14.05;100.00;101187.41;5092853;28;20535;-86
2023/10/12 07:17:19;;;;;;;45.67;19.38;;;;;;;14.04;100.00;101181.13;5094297;28;20024;-87
2023/10/12 07:19:49;;;;;;;40.53;19.35;;;;;;;14.06;100.00;101189.06;5094321;28;20084;-86
2023/10/12 07:22:15;;;;;;;43.83;18.90;;;;;;;14.07;100.00;101195.34;5093245;28;20035;-86
2023/10/12 07:24:44;;;;;;;51.05;18.63;;;;;;;14.06;100.00;101201.88;5093035;28;20050;-87
2023/10/12 07:27:21;;;;;;;45.88;19.25;;;;;;;14.04;100.00;101200.22;5094039;28;20110;-86
2023/10/12 07:29:47;;;;;;;43.50;18.10;;;;;;;14.07;100.00;101209.00;5092864;28;20024;-86
2023/10/12 07:32:31;;;;;;;45.80;19.23;;;;;;;14.08;100.00;101206.03;5075821;28;20123;-87
2023/10/12 07:35:05;;;;;;;41.05;18.40;;;;;;;14.10;100.00;101209.38;5092810;28;20031;-86
2023/10/12 07:37:31;;;;;;;45.55;19.42;;;;;;;14.13;100.00;101205.34;5093036;28;20035;-86
2023/10/12 07:39:56;;;;;;;46.97;18.67;;;;;;;14.14;100.00;101213.31;5092745;28;20383;-86
2023/10/12 07:42:27;;;;;;;43.67;18.93;;;;;;;14.14;100.00;101207.88;5075830;28;20391;-87
2023/10/12 07:44:54;;;;;;;39.90;18.93;;;;;;;14.17;100.00;101210.13;5093174;28;20266;-86
2023/10/12 07:47:31;;;;;;;41.92;18.85;;;;;;;14.17;100.00;101210.13;5094161;28;20028;-87
2023/10/12 07:49:57;;;;;;;53.15;18.58;;;;;;;14.18;100.00;101208.22;5093486;28;20024;-87
2023/10/12 07:52:46;;;;;;;40.80;18.20;;;;;;;14.19;100.00;101205.25;5092882;28;20028;-86
2023/10/12 07:55:13;;;;;;;46.20;18.95;;;;;;;14.21;100.00;101211.31;5079421;28;20032;-87
2023/10/12 07:57:39;;;;;;;44.70;18.87;;;;;;;14.30;100.00;101211.00;5092109;28;20028;-87
2023/10/12 08:10:30;;;;;;;42.50;18.63;;;;;;;14.38;100.00;101205.22;5093718;28;20039;-86
2023/10/12 08:12:56;;;;;;;48.90;19.63;;;;;;;14.40;100.00;101197.63;5077001;28;20388;-86
2023/10/12 08:15:49;;;;;;;44.00;19.43;;;;;;;14.47;100.00;101203.81;5092292;28;20071;-87
2023/10/12 08:18:13;;;;;;;44.92;19.63;;;;;;;14.51;100.00;101205.03;5093834;28;20035;-86
2023/10/12 08:20:52;;;;;;;42.80;19.00;;;;;;;14.57;100.00;101208.69;5092861;28;20051;-86
2023/10/12 08:23:18;;;;;;;49.45;19.85;;;;;;;14.56;100.00;101202.41;5092371;28;20032;-87
2023/10/12 08:25:49;;;;;;;45.13;19.17;;;;;;;14.64;100.00;101208.66;5058967;28;20086;-87
2023/10/12 08:28:20;;;;;;;46.78;20.50;;;;;;;14.78;100.00;101210.09;5080502;28;20105;-86
2023/10/12 08:30:57;;;;;;;47.88;20.00;;;;;;;14.88;100.00;101210.38;5064820;28;20040;-87
2023/10/12 08:33:48;;;;;;;40.92;19.63;;;;;;;14.98;100.00;101206.22;5096197;28;20468;-87
2023/10/12 08:39:07;;;;;;;42.33;19.58;;;;;;;15.09;100.00;101210.88;5097487;28;20040;-86
2023/10/12 08:44:20;;;;;;;39.88;18.20;;;;;;;15.20;100.00;101214.66;5096347;28;20450;-86
2023/10/12 08:47:08;;;;;;;36.38;18.25;;;;;;;15.15;100.00;101214.56;5095896;28;20112;-87
2023/10/12 08:49:52;;;;;;;34.53;16.73;;;;;;;15.13;100.00;101216.66;5082182;28;20039;-87
2023/10/12 08:52:27;;;;;;;35.85;16.48;;;;;;;15.26;100.00;101225.50;5097047;28;20115;-87
2023/10/12 08:55:11;;;;;;;38.47;16.60;;;;;;;15.30;100.00;101244.16;5097112;28;20032;-87
2023/10/12 08:58:03;;;;;;;30.00;15.75;;;;;;;15.23;100.00;101236.03;5095692;28;20031;-87
2023/10/12 09:03:00;;;;;;;28.03;14.37;;;;;;;15.14;100.00;101241.03;5096912;28;20043;-86
2023/10/12 09:05:33;;;;;;;32.50;15.30;;;;;;;15.11;100.00;101238.78;5095473;28;20036;-87
2023/10/12 09:13:27;;;;;;;31.17;16.15;;;;;;;15.19;100.00;101241.16;5096570;28;20403;-87
2023/10/12 09:15:57;;;;;;;32.30;15.47;;;;;;;15.32;100.00;101247.47;5095536;28;20026;-87
2023/10/12 09:18:30;;;;;;;29.05;15.85;;;;;;;15.22;100.00;101248.88;5078835;28;20119;-87
2023/10/12 09:36:24;;;;;;;31.87;16.17;;;;;;;15.23;100.00;101239.59;5096299;28;20036;-87
2023/10/12 09:38:55;;;;;;;31.27;16.10;;;;;;;15.35;100.00;101227.84;5095080;28;20475;-87
2023/10/12 09:41:28;;;;;;;30.63;15.82;;;;;;;15.39;100.00;101229.03;5094902;28;20064;-87
2023/10/12 09:43:56;;;;;;;34.07;15.83;;;;;;;15.41;100.00;101233.22;5095288;28;20524;-87
2023/10/12 09:46:27;;;;;;;33.70;15.23;;;;;;;15.48;100.00;101229.50;5094716;28;20039;-87
2023/10/12 09:49:08;;;;;;;34.28;15.82;;;;;;;15.48;100.00;101224.88;5094926;28;20392;-86
2023/10/12 09:51:47;;;;;;;32.72;16.10;;;;;;;15.44;100.00;101216.31;5096196;28;20035;-87
2023/10/12 09:54:27;;;;;;;30.05;15.25;;;;;;;15.40;100.00;101220.59;5095872;28;20032;-87
2023/10/12 09:56:58;;;;;;;28.07;14.23;;;;;;;15.35;100.00;101230.59;5095889;28;20024;-87
2023/10/12 09:59:29;;;;;;;27.45;14.32;;;;;;;15.33;100.00;101227.25;5094765;28;20103;-87
2023/10/12 10:04:45;;;;;;;28.30;14.35;;;;;;;15.39;100.00;101221.66;5096270;28;20062;-87
2023/10/12 10:07:35;;;;;;;32.08;15.90;;;;;;;15.51;100.00;101220.81;5094247;28;20384;-87
2023/10/12 10:10:06;;;;;;;27.63;14.77;;;;;;;15.56;100.00;101224.50;5095686;28;20028;-86
2023/10/12 10:12:42;;;;;;;26.02;14.45;;;;;;;15.52;100.00;101220.59;5094528;28;20076;-87
2023/10/12 10:15:13;;;;;;;29.30;14.63;;;;;;;15.55;100.00;101222.84;5094540;28;20024;-86
2023/10/12 10:17:47;;;;;;;25.95;13.93;;;;;;;15.50;100.00;101217.28;5077735;28;20043;-86
2023/10/12 10:22:58;;;;;;;26.07;14.27;;;;;;;15.72;100.00;101209.28;5095111;28;20510;-86
2023/10/12 10:25:34;;;;;;;27.45;14.48;;;;;;;15.87;100.00;101211.53;5094977;28;20574;-86
2023/10/12 10:28:06;;;;;;;23.45;13.23;;;;;;;15.92;100.00;101197.94;5094027;28;20549;-86
2023/10/12 10:30:40;;;;;;;20.80;13.55;;;;;;;16.20;100.00;101199.03;5094256;28;20122;-87
2023/10/12 10:33:17;;;;;;;22.17;12.93;;;;;;;16.35;100.00;101201.22;5095201;28;20135;-87
2023/10/12 10:36:10;;;;;;;25.60;12.73;;;;;;;16.54;100.00;101185.41;5094601;28;20333;-87
2023/10/12 10:41:37;;;;;;;19.13;12.32;;;;;;;16.85;100.00;101183.19;5095078;28;20115;-87
2023/10/12 10:44:03;;;;;;;20.92;11.70;;;;;;;16.89;100.00;101178.06;5094789;28;20464;-87
2023/10/12 10:46:32;;;;;;;25.45;11.75;;;;;;;16.89;100.00;101187.13;5093534;28;20039;-86
2023/10/12 10:48:58;;;;;;;20.13;11.73;;;;;;;16.77;100.00;101181.69;5094442;28;20035;-86
2023/10/12 10:51:32;;;;;;;20.10;10.90;;;;;;;16.87;100.00;101183.78;5076656;28;20077;-87
2023/10/12 10:53:58;;;;;;;25.15;11.93;;;;;;;17.01;100.00;101182.38;5093601;28;20039;-86
2023/10/12 10:56:41;;;;;;;15.30;10.05;;;;;;;17.22;100.00;101181.88;5110318;28;20036;-86
2023/10/12 10:59:12;;;;;;;19.70;10.60;;;;;;;17.34;100.00;101188.06;5078814;28;20032;-86
2023/10/12 11:01:41;;;;;;;23.73;10.57;;;;;;;17.24;100.00;101187.91;5093464;28;20372;-86
2023/10/12 11:04:17;;;;;;;26.48;10.98;;;;;;;17.16;100.00;101186.44;5093397;28;20387;-86
2023/10/12 11:06:47;;;;;;;21.55;11.15;;;;;;;17.07;100.00;101190.69;5093288;28;20055;-86
2023/10/12 11:09:15;;;;;;;20.85;11.15;;;;;;;16.97;100.00;101177.66;5076872;28;20032;-86
2023/10/12 11:11:48;;;;;;;20.90;11.40;;;;;;;17.11;100.00;101178.13;5094408;28;20032;-87
2023/10/12 11:14:17;;;;;;;19.02;11.80;;;;;;;17.17;100.00;101169.75;5094868;28;20024;-86
2023/10/12 11:16:47;;;;;;;23.35;11.45;;;;;;;17.23;100.00;101164.31;5093086;28;20039;-87
2023/10/12 11:19:13;;;;;;;23.45;11.63;;;;;;;17.28;100.00;101164.41;5092814;28;20096;-87
2023/10/12 11:21:46;;;;;;;18.90;11.13;;;;;;;17.38;100.00;101175.50;5092756;28;20391;-86
2023/10/12 11:24:14;;;;;;;22.23;11.07;;;;;;;17.35;100.00;101174.09;5093128;28;20020;-87
2023/10/12 11:26:51;;;;;;;25.20;11.02;;;;;;;17.39;100.00;101179.06;5093131;28;20024;-87
2023/10/12 11:29:18;;;;;;;17.30;10.20;;;;;;;17.32;100.00;101179.28;5092532;28;20492;-87
2023/10/12 11:32:03;;;;;;;18.23;10.17;;;;;;;17.28;100.00;101175.38;5093886;28;20039;-86
2023/10/12 11:34:33;;;;;;;18.90;10.50;;;;;;;17.29;100.00;101174.28;5095252;28;20290;-87
2023/10/12 11:36:58;;;;;;;19.75;9.90;;;;;;;17.27;100.00;101170.97;5093608;28;20456;-87
2023/10/12 11:39:28;;;;;;;20.83;9.03;;;;;;;17.28;100.00;101154.25;5093478;28;20035;-87
2023/10/12 11:42:07;;;;;;;12.65;8.32;;;;;;;17.28;100.00;101165.22;5092764;28;20486;-87
2023/10/12 11:44:37;;;;;;;11.90;8.50;;;;;;;17.28;100.00;101167.16;5092315;28;20043;-87
2023/10/12 11:47:08;;;;;;;16.05;7.97;;;;;;;17.38;100.00;101163.69;5092475;28;20028;-87
2023/10/12 11:49:56;;;;;;;13.73;7.65;;;;;;;17.46;100.00;101152.28;5076062;28;20036;-87
2023/10/12 11:52:40;;;;;;;12.13;7.27;;;;;;;17.50;100.00;101159.75;5092989;28;20376;-87
2023/10/12 11:55:18;;;;;;;16.20;7.97;;;;;;;17.41;100.00;101149.50;5076024;28;20036;-87
2023/10/12 11:57:54;;;;;;;13.75;7.95;;;;;;;17.38;100.00;101152.72;5092362;28;20024;-87
2023/10/12 12:00:29;;;;;;;16.42;8.60;;;;;;;17.44;100.00;101155.28;5093144;28;20115;-87
2023/10/12 12:03:02;;;;;;;15.10;8.57;;;;;;;17.40;100.00;101147.84;5093169;28;20024;-87
2023/10/12 12:05:33;;;;;;;14.17;7.30;;;;;;;17.36;100.00;101151.09;5092630;28;20024;-87
2023/10/12 12:08:05;;;;;;;12.43;7.32;;;;;;;17.33;100.00;101151.59;5094255;28;20056;-87
2023/10/12 12:10:53;;;;;;;13.73;7.82;;;;;;;17.26;100.00;101150.94;5092962;28;20028;-87
2023/10/12 12:13:23;;;;;;;13.35;7.70;;;;;;;17.19;100.00;101151.13;5092624;28;20118;-87
2023/10/12 12:15:49;;;;;;;14.65;7.60;;;;;;;17.11;100.00;101148.81;5092179;28;20021;-87
2023/10/12 12:18:19;;;;;;;12.73;7.73;;;;;;;17.08;100.00;101146.59;5093094;28;20103;-88
2023/10/12 12:20:49;;;;;;;14.68;7.65;;;;;;;16.97;100.00;101133.78;5093248;28;20020;-87
2023/10/12 12:23:16;;;;;;;17.65;7.95;;;;;;;16.93;100.00;101132.63;5092519;28;20510;-87
2023/10/12 12:25:42;;;;;;;17.83;8.15;;;;;;;16.91;100.00;101130.16;5091889;28;20090;-87
2023/10/12 12:28:10;;;;;;;16.30;7.95;;;;;;;16.90;100.00;101113.94;5093071;28;20047;-87
2023/10/12 12:30:46;;;;;;;11.67;7.27;;;;;;;16.86;100.00;101120.97;5091917;28;20024;-87
2023/10/12 12:33:16;;;;;;;15.30;7.85;;;;;;;16.82;100.00;101120.66;5092106;28;20052;-87
2023/10/12 12:35:45;;;;;;;14.20;8.65;;;;;;;16.60;100.00;101106.91;5092725;28;20036;-87
2023/10/12 12:40:57;;;;;;;19.38;8.98;;;;;;;16.10;100.00;101101.13;5093465;28;20038;-87
2023/10/12 12:43:22;;;;;;;15.27;8.37;;;;;;;15.91;100.00;101091.47;5075355;28;20472;-86
2023/10/12 12:45:48;;;;;;;18.60;9.48;;;;;;;15.82;100.00;101101.97;5091488;28;20035;-86
2023/10/12 12:48:14;;;;;;;19.23;9.53;;;;;;;15.77;100.00;101097.22;5091990;28;20040;-86
2023/10/12 12:50:40;;;;;;;18.08;9.93;;;;;;;15.74;100.00;101097.69;5075512;28;20484;-86
2023/10/12 12:53:11;;;;;;;23.83;10.93;;;;;;;15.73;100.00;101104.22;5092888;28;20111;-86
2023/10/12 12:55:38;;;;;;;21.90;11.60;;;;;;;15.78;100.00;101106.25;5075213;28;20046;-86
2023/10/12 12:58:05;;;;;;;20.48;11.55;;;;;;;15.75;100.00;101099.38;5092923;28;20027;-86
2023/10/12 13:00:33;;;;;;;21.23;12.13;;;;;;;15.74;100.00;101110.56;5091140;28;20035;-86
2023/10/12 13:03:01;;;;;;;21.17;12.18;;;;;;;15.67;100.00;101104.38;5093088;28;20036;-86
2023/10/12 13:05:30;;;;;;;22.15;11.90;;;;;;;15.63;100.00;101106.75;5091863;28;20040;-86
2023/10/12 13:07:56;;;;;;;21.33;12.43;;;;;;;15.58;100.00;101115.69;5092608;28;20032;-88
2023/10/12 13:10:25;;;;;;;22.55;12.63;;;;;;;15.52;100.00;101113.13;5091728;28;20027;-86
2023/10/12 13:12:51;;;;;;;23.98;12.25;;;;;;;15.44;100.00;101104.22;5094881;28;20028;-86
2023/10/12 13:15:16;;;;;;;24.50;12.33;;;;;;;15.42;100.00;101108.25;5113255;28;20049;-86
2023/10/12 13:17:47;;;;;;;25.40;12.20;;;;;;;15.42;100.00;101105.53;5095602;28;20473;-86